sensor_id;sensor_type;location;lat;lon;timestamp;temperature;humidity
14901;DHT22;7542;49.078;9.194;2023-11-21T00:00:53;29.40;43.30
14901;DHT22;7542;49.078;9.194;2023-11-21T00:01:55;29.20;44.10
14901;DHT22;7542;49.078;9.194;2023-11-21T00:02:58;29.10;44.80
14901;DHT22;7542;49.078;9.194;2023-11-21T00:04:00;28.90;44.50
14901;DHT22;7542;49.078;9.194;2023-11-21T00:05:03;28.70;45.00
14901;DHT22;7542;49.078;9.194;2023-11-21T00:06:06;28.50;45.20
14901;DHT22;7542;49.078;9.194;2023-11-21T00:07:11;28.40;45.40
14901;DHT22;7542;49.078;9.194;2023-11-21T00:08:13;28.30;45.50
14901;DHT22;7542;49.078;9.194;2023-11-21T00:09:15;28.20;45.80
14901;DHT22;7542;49.078;9.194;2023-11-21T00:10:17;28.10;46.00
14901;DHT22;7542;49.078;9.194;2023-11-21T00:11:19;28.00;46.10
14901;DHT22;7542;49.078;9.194;2023-11-21T00:12:21;27.90;45.80
14901;DHT22;7542;49.078;9.194;2023-11-21T00:13:22;27.90;45.80
14901;DHT22;7542;49.078;9.194;2023-11-21T00:14:25;27.80;45.90
14901;DHT22;7542;49.078;9.194;2023-11-21T00:15:27;27.70;46.10
14901;DHT22;7542;49.078;9.194;2023-11-21T00:16:28;27.60;46.20
14901;DHT22;7542;49.078;9.194;2023-11-21T00:17:31;27.60;46.30
14901;DHT22;7542;49.078;9.194;2023-11-21T00:18:33;27.60;46.40
14901;DHT22;7542;49.078;9.194;2023-11-21T00:19:35;27.50;46.50
14901;DHT22;7542;49.078;9.194;2023-11-21T00:20:37;27.30;46.70
14901;DHT22;7542;49.078;9.194;2023-11-21T00:21:39;27.40;46.60
14901;DHT22;7542;49.078;9.194;2023-11-21T00:22:41;27.70;46.80
14901;DHT22;7542;49.078;9.194;2023-11-21T00:23:43;27.20;46.90
14901;DHT22;7542;49.078;9.194;2023-11-21T00:24:46;27.10;47.00
14901;DHT22;7542;49.078;9.194;2023-11-21T00:25:48;27.10;47.10
14901;DHT22;7542;49.078;9.194;2023-11-21T00:26:50;27.10;47.20
14901;DHT22;7542;49.078;9.194;2023-11-21T00:27:52;27.00;47.40
14901;DHT22;7542;49.078;9.194;2023-11-21T00:28:55;27.00;47.40
14901;DHT22;7542;49.078;9.194;2023-11-21T00:29:57;27.20;47.50
14901;DHT22;7542;49.078;9.194;2023-11-21T00:30:59;26.90;47.00
14901;DHT22;7542;49.078;9.194;2023-11-21T00:32:01;26.90;47.10
14901;DHT22;7542;49.078;9.194;2023-11-21T00:33:03;26.80;47.10
14901;DHT22;7542;49.078;9.194;2023-11-21T00:34:06;26.80;47.20
14901;DHT22;7542;49.078;9.194;2023-11-21T00:35:08;26.70;47.20
14901;DHT22;7542;49.078;9.194;2023-11-21T00:36:10;26.70;47.40
14901;DHT22;7542;49.078;9.194;2023-11-21T00:37:12;26.60;47.40
14901;DHT22;7542;49.078;9.194;2023-11-21T00:38:14;26.60;47.50
14901;DHT22;7542;49.078;9.194;2023-11-21T00:39:16;26.50;47.60
14901;DHT22;7542;49.078;9.194;2023-11-21T00:40:18;26.40;47.70
14901;DHT22;7542;49.078;9.194;2023-11-21T00:41:23;26.50;47.70
14901;DHT22;7542;49.078;9.194;2023-11-21T00:42:25;26.40;47.70
14901;DHT22;7542;49.078;9.194;2023-11-21T00:43:27;26.40;47.90
14901;DHT22;7542;49.078;9.194;2023-11-21T00:44:29;26.40;47.90
14901;DHT22;7542;49.078;9.194;2023-11-21T00:45:31;26.30;47.90
14901;DHT22;7542;49.078;9.194;2023-11-21T00:46:33;26.30;48.00
14901;DHT22;7542;49.078;9.194;2023-11-21T00:47:35;26.20;48.10
14901;DHT22;7542;49.078;9.194;2023-11-21T00:48:37;26.20;48.20
14901;DHT22;7542;49.078;9.194;2023-11-21T00:49:39;26.10;48.20
14901;DHT22;7542;49.078;9.194;2023-11-21T00:50:42;26.10;48.20
14901;DHT22;7542;49.078;9.194;2023-11-21T00:51:43;26.00;48.30
14901;DHT22;7542;49.078;9.194;2023-11-21T00:52:45;26.00;48.40
14901;DHT22;7542;49.078;9.194;2023-11-21T00:53:48;26.00;48.40
14901;DHT22;7542;49.078;9.194;2023-11-21T00:54:50;26.00;48.50
14901;DHT22;7542;49.078;9.194;2023-11-21T00:55:52;26.00;48.60
14901;DHT22;7542;49.078;9.194;2023-11-21T00:56:58;26.00;48.60
14901;DHT22;7542;49.078;9.194;2023-11-21T00:58:00;25.90;48.30
14901;DHT22;7542;49.078;9.194;2023-11-21T00:59:05;25.90;48.30
14901;DHT22;7542;49.078;9.194;2023-11-21T01:00:07;25.90;48.30
14901;DHT22;7542;49.078;9.194;2023-11-21T01:01:16;25.90;48.40
14901;DHT22;7542;49.078;9.194;2023-11-21T01:02:18;25.90;48.40
14901;DHT22;7542;49.078;9.194;2023-11-21T01:03:20;25.90;48.40
14901;DHT22;7542;49.078;9.194;2023-11-21T01:04:23;25.90;48.50
14901;DHT22;7542;49.078;9.194;2023-11-21T01:05:25;25.80;48.50
14901;DHT22;7542;49.078;9.194;2023-11-21T01:06:28;25.70;48.50
14901;DHT22;7542;49.078;9.194;2023-11-21T01:07:31;25.70;48.50
14901;DHT22;7542;49.078;9.194;2023-11-21T01:08:33;25.70;48.60
14901;DHT22;7542;49.078;9.194;2023-11-21T01:09:35;25.70;48.70
14901;DHT22;7542;49.078;9.194;2023-11-21T01:10:38;25.70;48.70
14901;DHT22;7542;49.078;9.194;2023-11-21T01:11:40;25.60;48.70
14901;DHT22;7542;49.078;9.194;2023-11-21T01:12:42;25.60;48.80
14901;DHT22;7542;49.078;9.194;2023-11-21T01:13:43;25.60;48.80
14901;DHT22;7542;49.078;9.194;2023-11-21T01:14:46;25.50;48.90
14901;DHT22;7542;49.078;9.194;2023-11-21T01:15:48;25.50;48.90
14901;DHT22;7542;49.078;9.194;2023-11-21T01:16:50;25.50;48.90
14901;DHT22;7542;49.078;9.194;2023-11-21T01:17:52;25.50;48.90
14901;DHT22;7542;49.078;9.194;2023-11-21T01:18:54;25.50;49.00
14901;DHT22;7542;49.078;9.194;2023-11-21T01:19:56;25.40;49.00
14901;DHT22;7542;49.078;9.194;2023-11-21T01:20:59;25.40;49.10
14901;DHT22;7542;49.078;9.194;2023-11-21T01:22:02;25.40;49.10
14901;DHT22;7542;49.078;9.194;2023-11-21T01:23:03;25.30;49.10
14901;DHT22;7542;49.078;9.194;2023-11-21T01:24:06;25.30;49.20
14901;DHT22;7542;49.078;9.194;2023-11-21T01:25:09;25.30;49.20
14901;DHT22;7542;49.078;9.194;2023-11-21T01:26:12;25.30;49.20
14901;DHT22;7542;49.078;9.194;2023-11-21T01:27:14;25.30;49.20
14901;DHT22;7542;49.078;9.194;2023-11-21T01:28:16;25.20;49.30
14901;DHT22;7542;49.078;9.194;2023-11-21T01:29:18;25.30;49.30
14901;DHT22;7542;49.078;9.194;2023-11-21T01:30:20;25.30;49.30
14901;DHT22;7542;49.078;9.194;2023-11-21T01:31:22;25.20;49.30
14901;DHT22;7542;49.078;9.194;2023-11-21T01:32:24;25.30;49.40
14901;DHT22;7542;49.078;9.194;2023-11-21T01:33:26;25.00;49.40
14901;DHT22;7542;49.078;9.194;2023-11-21T01:34:28;25.20;49.40
14901;DHT22;7542;49.078;9.194;2023-11-21T01:35:30;25.10;49.50
14901;DHT22;7542;49.078;9.194;2023-11-21T01:36:33;25.10;49.50
14901;DHT22;7542;49.078;9.194;2023-11-21T01:37:35;25.10;49.60
14901;DHT22;7542;49.078;9.194;2023-11-21T01:38:37;25.10;49.60
14901;DHT22;7542;49.078;9.194;2023-11-21T01:39:39;25.10;49.60
14901;DHT22;7542;49.078;9.194;2023-11-21T01:40:41;25.10;49.60
14901;DHT22;7542;49.078;9.194;2023-11-21T01:41:43;25.10;49.70
14901;DHT22;7542;49.078;9.194;2023-11-21T01:42:46;25.00;49.70
14901;DHT22;7542;49.078;9.194;2023-11-21T01:43:49;25.00;49.70
14901;DHT22;7542;49.078;9.194;2023-11-21T01:44:50;25.10;49.70
14901;DHT22;7542;49.078;9.194;2023-11-21T01:45:54;25.00;49.70
14901;DHT22;7542;49.078;9.194;2023-11-21T01:46:58;25.00;49.70
14901;DHT22;7542;49.078;9.194;2023-11-21T01:48:01;25.00;49.80
14901;DHT22;7542;49.078;9.194;2023-11-21T01:49:04;25.00;49.80
14901;DHT22;7542;49.078;9.194;2023-11-21T01:50:08;24.90;49.80
14901;DHT22;7542;49.078;9.194;2023-11-21T01:51:14;25.00;49.90
14901;DHT22;7542;49.078;9.194;2023-11-21T01:52:16;24.90;49.90
14901;DHT22;7542;49.078;9.194;2023-11-21T01:53:19;24.90;49.90
14901;DHT22;7542;49.078;9.194;2023-11-21T01:54:22;24.90;49.90
14901;DHT22;7542;49.078;9.194;2023-11-21T01:55:24;24.90;50.00
14901;DHT22;7542;49.078;9.194;2023-11-21T01:56:29;24.90;50.00
14901;DHT22;7542;49.078;9.194;2023-11-21T01:57:32;24.80;49.90
14901;DHT22;7542;49.078;9.194;2023-11-21T01:58:34;24.80;50.00
14901;DHT22;7542;49.078;9.194;2023-11-21T01:59:38;24.80;50.00
14901;DHT22;7542;49.078;9.194;2023-11-21T02:00:43;24.80;50.00
14901;DHT22;7542;49.078;9.194;2023-11-21T02:01:45;24.80;50.00
14901;DHT22;7542;49.078;9.194;2023-11-21T02:02:48;24.70;50.00
14901;DHT22;7542;49.078;9.194;2023-11-21T02:03:51;24.80;50.00
14901;DHT22;7542;49.078;9.194;2023-11-21T02:04:52;24.70;50.00
14901;DHT22;7542;49.078;9.194;2023-11-21T02:05:54;24.80;50.10
14901;DHT22;7542;49.078;9.194;2023-11-21T02:06:57;24.70;50.10
14901;DHT22;7542;49.078;9.194;2023-11-21T02:07:59;24.70;50.10
14901;DHT22;7542;49.078;9.194;2023-11-21T02:09:02;24.70;50.20
14901;DHT22;7542;49.078;9.194;2023-11-21T02:10:09;24.70;50.20
14901;DHT22;7542;49.078;9.194;2023-11-21T02:11:11;26.50;50.70
14901;DHT22;7542;49.078;9.194;2023-11-21T02:12:16;24.70;50.20
14901;DHT22;7542;49.078;9.194;2023-11-21T02:13:18;24.70;50.30
14901;DHT22;7542;49.078;9.194;2023-11-21T02:14:21;24.60;50.20
14901;DHT22;7542;49.078;9.194;2023-11-21T02:15:24;24.60;50.20
14901;DHT22;7542;49.078;9.194;2023-11-21T02:16:31;24.70;50.30
14901;DHT22;7542;49.078;9.194;2023-11-21T02:17:34;24.60;50.20
14901;DHT22;7542;49.078;9.194;2023-11-21T02:18:36;24.60;50.20
14901;DHT22;7542;49.078;9.194;2023-11-21T02:19:38;24.60;50.30
14901;DHT22;7542;49.078;9.194;2023-11-21T02:20:40;24.70;50.30
14901;DHT22;7542;49.078;9.194;2023-11-21T02:21:45;24.60;50.30
14901;DHT22;7542;49.078;9.194;2023-11-21T02:22:51;24.60;50.30
14901;DHT22;7542;49.078;9.194;2023-11-21T02:23:59;24.50;50.30
14901;DHT22;7542;49.078;9.194;2023-11-21T02:25:01;24.50;50.30
14901;DHT22;7542;49.078;9.194;2023-11-21T02:26:04;24.50;50.30
14901;DHT22;7542;49.078;9.194;2023-11-21T02:27:06;24.50;50.30
14901;DHT22;7542;49.078;9.194;2023-11-21T02:28:08;24.50;50.30
14901;DHT22;7542;49.078;9.194;2023-11-21T02:29:10;24.50;50.30
14901;DHT22;7542;49.078;9.194;2023-11-21T02:30:14;24.40;50.30
14901;DHT22;7542;49.078;9.194;2023-11-21T02:31:17;24.50;50.40
14901;DHT22;7542;49.078;9.194;2023-11-21T02:32:20;24.50;50.40
14901;DHT22;7542;49.078;9.194;2023-11-21T02:33:24;24.50;50.40
14901;DHT22;7542;49.078;9.194;2023-11-21T02:34:26;24.50;50.40
14901;DHT22;7542;49.078;9.194;2023-11-21T02:35:28;24.70;50.50
14901;DHT22;7542;49.078;9.194;2023-11-21T02:36:33;24.40;50.30
14901;DHT22;7542;49.078;9.194;2023-11-21T02:37:36;24.50;50.50
14901;DHT22;7542;49.078;9.194;2023-11-21T02:38:38;24.40;50.40
14901;DHT22;7542;49.078;9.194;2023-11-21T02:39:40;24.40;50.50
14901;DHT22;7542;49.078;9.194;2023-11-21T02:40:43;29.20;52.70
14901;DHT22;7542;49.078;9.194;2023-11-21T02:41:45;24.40;50.50
14901;DHT22;7542;49.078;9.194;2023-11-21T02:42:48;24.40;50.50
14901;DHT22;7542;49.078;9.194;2023-11-21T02:43:54;24.40;50.50
14901;DHT22;7542;49.078;9.194;2023-11-21T02:44:56;24.30;50.60
14901;DHT22;7542;49.078;9.194;2023-11-21T02:45:58;24.30;50.60
14901;DHT22;7542;49.078;9.194;2023-11-21T02:47:00;24.30;50.60
14901;DHT22;7542;49.078;9.194;2023-11-21T02:48:03;24.30;50.70
14901;DHT22;7542;49.078;9.194;2023-11-21T02:49:06;24.30;50.70
14901;DHT22;7542;49.078;9.194;2023-11-21T02:50:08;24.30;50.70
14901;DHT22;7542;49.078;9.194;2023-11-21T02:51:11;24.20;50.60
14901;DHT22;7542;49.078;9.194;2023-11-21T02:52:13;24.30;50.70
14901;DHT22;7542;49.078;9.194;2023-11-21T02:53:15;24.20;50.60
14901;DHT22;7542;49.078;9.194;2023-11-21T02:54:17;24.20;50.60
14901;DHT22;7542;49.078;9.194;2023-11-21T02:55:21;24.30;50.70
14901;DHT22;7542;49.078;9.194;2023-11-21T02:56:22;24.20;50.60
14901;DHT22;7542;49.078;9.194;2023-11-21T02:57:24;24.20;50.70
14901;DHT22;7542;49.078;9.194;2023-11-21T02:58:26;24.20;50.70
14901;DHT22;7542;49.078;9.194;2023-11-21T02:59:28;24.20;50.70
14901;DHT22;7542;49.078;9.194;2023-11-21T03:00:30;24.20;50.70
14901;DHT22;7542;49.078;9.194;2023-11-21T03:01:32;24.20;50.70
14901;DHT22;7542;49.078;9.194;2023-11-21T03:02:34;24.20;50.70
14901;DHT22;7542;49.078;9.194;2023-11-21T03:03:41;24.20;50.70
14901;DHT22;7542;49.078;9.194;2023-11-21T03:04:43;24.20;50.70
14901;DHT22;7542;49.078;9.194;2023-11-21T03:05:45;24.10;50.70
14901;DHT22;7542;49.078;9.194;2023-11-21T03:06:47;24.10;50.70
14901;DHT22;7542;49.078;9.194;2023-11-21T03:07:49;24.10;50.70
14901;DHT22;7542;49.078;9.194;2023-11-21T03:08:51;24.10;50.70
14901;DHT22;7542;49.078;9.194;2023-11-21T03:09:53;24.40;50.80
14901;DHT22;7542;49.078;9.194;2023-11-21T03:10:55;24.10;50.80
14901;DHT22;7542;49.078;9.194;2023-11-21T03:11:58;24.10;50.80
14901;DHT22;7542;49.078;9.194;2023-11-21T03:13:00;24.10;50.80
14901;DHT22;7542;49.078;9.194;2023-11-21T03:14:02;23.90;50.70
14901;DHT22;7542;49.078;9.194;2023-11-21T03:15:05;24.00;50.80
14901;DHT22;7542;49.078;9.194;2023-11-21T03:16:09;24.00;50.80
14901;DHT22;7542;49.078;9.194;2023-11-21T03:17:12;24.00;50.80
14901;DHT22;7542;49.078;9.194;2023-11-21T03:18:16;24.00;50.80
14901;DHT22;7542;49.078;9.194;2023-11-21T03:19:19;24.00;50.90
14901;DHT22;7542;49.078;9.194;2023-11-21T03:20:20;24.00;50.90
14901;DHT22;7542;49.078;9.194;2023-11-21T03:21:22;24.00;50.90
14901;DHT22;7542;49.078;9.194;2023-11-21T03:22:24;24.00;51.00
14901;DHT22;7542;49.078;9.194;2023-11-21T03:23:27;24.00;50.90
14901;DHT22;7542;49.078;9.194;2023-11-21T03:24:28;24.00;51.00
14901;DHT22;7542;49.078;9.194;2023-11-21T03:25:30;24.00;50.90
14901;DHT22;7542;49.078;9.194;2023-11-21T03:26:33;23.90;51.00
14901;DHT22;7542;49.078;9.194;2023-11-21T03:27:35;24.00;51.00
14901;DHT22;7542;49.078;9.194;2023-11-21T03:28:37;24.00;51.00
14901;DHT22;7542;49.078;9.194;2023-11-21T03:29:39;23.90;51.00
14901;DHT22;7542;49.078;9.194;2023-11-21T03:30:41;23.90;51.00
14901;DHT22;7542;49.078;9.194;2023-11-21T03:31:43;23.90;51.00
14901;DHT22;7542;49.078;9.194;2023-11-21T03:32:45;23.90;51.00
14901;DHT22;7542;49.078;9.194;2023-11-21T03:33:47;23.90;51.10
14901;DHT22;7542;49.078;9.194;2023-11-21T03:34:58;23.90;51.00
14901;DHT22;7542;49.078;9.194;2023-11-21T03:36:01;23.80;50.90
14901;DHT22;7542;49.078;9.194;2023-11-21T03:37:03;23.90;51.00
14901;DHT22;7542;49.078;9.194;2023-11-21T03:38:05;23.90;51.00
14901;DHT22;7542;49.078;9.194;2023-11-21T03:39:07;23.90;51.00
14901;DHT22;7542;49.078;9.194;2023-11-21T03:40:09;23.90;51.00
14901;DHT22;7542;49.078;9.194;2023-11-21T03:41:11;23.90;51.00
14901;DHT22;7542;49.078;9.194;2023-11-21T03:42:13;23.80;50.90
14901;DHT22;7542;49.078;9.194;2023-11-21T03:43:15;23.90;51.10
14901;DHT22;7542;49.078;9.194;2023-11-21T03:44:17;23.90;51.10
14901;DHT22;7542;49.078;9.194;2023-11-21T03:45:19;23.80;51.00
14901;DHT22;7542;49.078;9.194;2023-11-21T03:46:21;23.80;51.10
14901;DHT22;7542;49.078;9.194;2023-11-21T03:47:23;23.80;51.10
14901;DHT22;7542;49.078;9.194;2023-11-21T03:48:25;23.80;51.10
14901;DHT22;7542;49.078;9.194;2023-11-21T03:49:27;23.80;51.10
14901;DHT22;7542;49.078;9.194;2023-11-21T03:50:30;23.80;51.10
14901;DHT22;7542;49.078;9.194;2023-11-21T03:51:33;23.80;51.20
14901;DHT22;7542;49.078;9.194;2023-11-21T03:52:35;23.80;51.10
14901;DHT22;7542;49.078;9.194;2023-11-21T03:53:38;23.80;51.20
14901;DHT22;7542;49.078;9.194;2023-11-21T03:54:40;23.70;51.20
14901;DHT22;7542;49.078;9.194;2023-11-21T03:55:42;23.70;51.20
14901;DHT22;7542;49.078;9.194;2023-11-21T03:56:44;23.80;51.20
14901;DHT22;7542;49.078;9.194;2023-11-21T03:57:46;23.70;51.30
14901;DHT22;7542;49.078;9.194;2023-11-21T03:58:49;23.70;51.20
14901;DHT22;7542;49.078;9.194;2023-11-21T03:59:51;23.70;51.20
14901;DHT22;7542;49.078;9.194;2023-11-21T04:00:53;23.70;51.30
14901;DHT22;7542;49.078;9.194;2023-11-21T04:01:58;23.70;51.30
14901;DHT22;7542;49.078;9.194;2023-11-21T04:03:00;23.70;51.40
14901;DHT22;7542;49.078;9.194;2023-11-21T04:04:02;23.70;51.30
14901;DHT22;7542;49.078;9.194;2023-11-21T04:05:05;23.70;51.30
14901;DHT22;7542;49.078;9.194;2023-11-21T04:06:08;23.80;51.20
14901;DHT22;7542;49.078;9.194;2023-11-21T04:07:10;23.70;51.30
14901;DHT22;7542;49.078;9.194;2023-11-21T04:08:15;23.70;51.20
14901;DHT22;7542;49.078;9.194;2023-11-21T04:09:17;23.70;51.30
14901;DHT22;7542;49.078;9.194;2023-11-21T04:10:19;23.70;51.30
14901;DHT22;7542;49.078;9.194;2023-11-21T04:11:21;23.70;51.30
14901;DHT22;7542;49.078;9.194;2023-11-21T04:12:23;23.60;51.20
14901;DHT22;7542;49.078;9.194;2023-11-21T04:13:25;23.60;51.30
14901;DHT22;7542;49.078;9.194;2023-11-21T04:14:27;23.70;51.40
14901;DHT22;7542;49.078;9.194;2023-11-21T04:15:29;23.70;51.30
14901;DHT22;7542;49.078;9.194;2023-11-21T04:16:31;23.70;51.40
14901;DHT22;7542;49.078;9.194;2023-11-21T04:17:33;23.70;51.40
14901;DHT22;7542;49.078;9.194;2023-11-21T04:18:36;23.60;51.30
14901;DHT22;7542;49.078;9.194;2023-11-21T04:19:39;23.60;51.30
14901;DHT22;7542;49.078;9.194;2023-11-21T04:20:41;23.60;51.30
14901;DHT22;7542;49.078;9.194;2023-11-21T04:21:43;23.60;51.30
14901;DHT22;7542;49.078;9.194;2023-11-21T04:22:45;23.60;51.30
14901;DHT22;7542;49.078;9.194;2023-11-21T04:23:47;23.60;51.30
14901;DHT22;7542;49.078;9.194;2023-11-21T04:24:50;23.60;51.40
14901;DHT22;7542;49.078;9.194;2023-11-21T04:25:53;23.60;51.40
14901;DHT22;7542;49.078;9.194;2023-11-21T04:26:57;23.70;51.50
14901;DHT22;7542;49.078;9.194;2023-11-21T04:27:59;23.60;51.30
14901;DHT22;7542;49.078;9.194;2023-11-21T04:29:01;23.60;51.30
14901;DHT22;7542;49.078;9.194;2023-11-21T04:30:04;23.50;51.40
14901;DHT22;7542;49.078;9.194;2023-11-21T04:31:07;23.50;51.40
14901;DHT22;7542;49.078;9.194;2023-11-21T04:32:09;23.50;51.40
14901;DHT22;7542;49.078;9.194;2023-11-21T04:33:11;23.50;51.40
14901;DHT22;7542;49.078;9.194;2023-11-21T04:34:13;23.50;51.50
14901;DHT22;7542;49.078;9.194;2023-11-21T04:35:15;23.50;51.40
14901;DHT22;7542;49.078;9.194;2023-11-21T04:36:17;23.50;51.40
14901;DHT22;7542;49.078;9.194;2023-11-21T04:37:19;23.50;51.40
14901;DHT22;7542;49.078;9.194;2023-11-21T04:38:21;23.40;51.30
14901;DHT22;7542;49.078;9.194;2023-11-21T04:39:23;23.50;51.40
14901;DHT22;7542;49.078;9.194;2023-11-21T04:40:25;23.50;51.40
14901;DHT22;7542;49.078;9.194;2023-11-21T04:41:28;23.50;51.40
14901;DHT22;7542;49.078;9.194;2023-11-21T04:42:31;23.50;51.50
14901;DHT22;7542;49.078;9.194;2023-11-21T04:43:32;23.40;51.40
14901;DHT22;7542;49.078;9.194;2023-11-21T04:44:34;23.40;51.40
14901;DHT22;7542;49.078;9.194;2023-11-21T04:45:36;23.50;51.60
14901;DHT22;7542;49.078;9.194;2023-11-21T04:46:38;23.40;51.50
14901;DHT22;7542;49.078;9.194;2023-11-21T04:47:40;23.40;51.50
14901;DHT22;7542;49.078;9.194;2023-11-21T04:48:43;23.40;51.50
14901;DHT22;7542;49.078;9.194;2023-11-21T04:49:46;23.40;51.50
14901;DHT22;7542;49.078;9.194;2023-11-21T04:50:51;23.40;51.50
14901;DHT22;7542;49.078;9.194;2023-11-21T04:51:53;23.50;51.60
14901;DHT22;7542;49.078;9.194;2023-11-21T04:52:56;23.40;51.50
14901;DHT22;7542;49.078;9.194;2023-11-21T04:53:58;23.40;51.50
14901;DHT22;7542;49.078;9.194;2023-11-21T04:55:00;23.40;51.50
14901;DHT22;7542;49.078;9.194;2023-11-21T04:56:03;23.40;51.50
14901;DHT22;7542;49.078;9.194;2023-11-21T04:57:06;23.30;51.60
14901;DHT22;7542;49.078;9.194;2023-11-21T04:58:11;23.50;51.60
14901;DHT22;7542;49.078;9.194;2023-11-21T04:59:13;23.40;51.50
14901;DHT22;7542;49.078;9.194;2023-11-21T05:00:16;23.40;51.60
14901;DHT22;7542;49.078;9.194;2023-11-21T05:01:18;23.50;51.70
14901;DHT22;7542;49.078;9.194;2023-11-21T05:02:20;23.30;51.50
14901;DHT22;7542;49.078;9.194;2023-11-21T05:03:36;23.40;51.60
14901;DHT22;7542;49.078;9.194;2023-11-21T05:04:40;23.40;51.50
14901;DHT22;7542;49.078;9.194;2023-11-21T05:05:44;23.40;51.50
14901;DHT22;7542;49.078;9.194;2023-11-21T05:06:46;23.40;51.50
14901;DHT22;7542;49.078;9.194;2023-11-21T05:07:49;23.40;51.40
14901;DHT22;7542;49.078;9.194;2023-11-21T05:08:51;23.40;51.30
14901;DHT22;7542;49.078;9.194;2023-11-21T05:09:53;23.40;51.40
14901;DHT22;7542;49.078;9.194;2023-11-21T05:10:55;23.40;51.40
14901;DHT22;7542;49.078;9.194;2023-11-21T05:11:57;23.40;51.40
14901;DHT22;7542;49.078;9.194;2023-11-21T05:12:59;23.40;51.30
14901;DHT22;7542;49.078;9.194;2023-11-21T05:14:01;23.40;51.40
14901;DHT22;7542;49.078;9.194;2023-11-21T05:15:07;23.40;51.40
14901;DHT22;7542;49.078;9.194;2023-11-21T05:16:14;23.30;51.40
14901;DHT22;7542;49.078;9.194;2023-11-21T05:17:16;23.40;51.40
14901;DHT22;7542;49.078;9.194;2023-11-21T05:18:18;23.30;51.40
14901;DHT22;7542;49.078;9.194;2023-11-21T05:19:20;23.30;51.30
14901;DHT22;7542;49.078;9.194;2023-11-21T05:20:22;23.30;51.30
14901;DHT22;7542;49.078;9.194;2023-11-21T05:21:28;23.30;51.30
14901;DHT22;7542;49.078;9.194;2023-11-21T05:22:34;23.30;51.30
14901;DHT22;7542;49.078;9.194;2023-11-21T05:23:36;23.30;51.40
14901;DHT22;7542;49.078;9.194;2023-11-21T05:24:39;23.30;51.30
14901;DHT22;7542;49.078;9.194;2023-11-21T05:25:40;23.30;51.30
14901;DHT22;7542;49.078;9.194;2023-11-21T05:26:43;23.30;51.30
14901;DHT22;7542;49.078;9.194;2023-11-21T05:27:46;23.40;51.40
14901;DHT22;7542;49.078;9.194;2023-11-21T05:28:48;23.30;51.40
14901;DHT22;7542;49.078;9.194;2023-11-21T05:29:50;23.40;51.40
14901;DHT22;7542;49.078;9.194;2023-11-21T05:30:52;23.40;51.40
14901;DHT22;7542;49.078;9.194;2023-11-21T05:32:14;23.30;51.40
14901;DHT22;7542;49.078;9.194;2023-11-21T05:33:16;23.30;51.40
14901;DHT22;7542;49.078;9.194;2023-11-21T05:34:18;23.30;51.40
14901;DHT22;7542;49.078;9.194;2023-11-21T05:35:22;23.30;51.40
14901;DHT22;7542;49.078;9.194;2023-11-21T05:36:24;23.40;51.40
14901;DHT22;7542;49.078;9.194;2023-11-21T05:37:26;23.10;51.30
14901;DHT22;7542;49.078;9.194;2023-11-21T05:38:28;23.30;51.30
14901;DHT22;7542;49.078;9.194;2023-11-21T05:39:31;23.30;51.40
14901;DHT22;7542;49.078;9.194;2023-11-21T05:40:33;23.30;51.30
14901;DHT22;7542;49.078;9.194;2023-11-21T05:41:35;23.30;51.40
14901;DHT22;7542;49.078;9.194;2023-11-21T05:42:37;23.30;51.50
14901;DHT22;7542;49.078;9.194;2023-11-21T05:43:42;23.30;51.50
14901;DHT22;7542;49.078;9.194;2023-11-21T05:44:44;23.30;51.50
14901;DHT22;7542;49.078;9.194;2023-11-21T05:45:46;23.30;51.50
14901;DHT22;7542;49.078;9.194;2023-11-21T05:46:48;23.30;51.50
14901;DHT22;7542;49.078;9.194;2023-11-21T05:47:50;23.30;51.50
14901;DHT22;7542;49.078;9.194;2023-11-21T05:48:52;23.30;51.50
14901;DHT22;7542;49.078;9.194;2023-11-21T05:49:54;23.30;51.50
14901;DHT22;7542;49.078;9.194;2023-11-21T05:50:56;23.30;51.50
14901;DHT22;7542;49.078;9.194;2023-11-21T05:51:58;21.10;50.60
14901;DHT22;7542;49.078;9.194;2023-11-21T05:53:04;23.30;51.50
14901;DHT22;7542;49.078;9.194;2023-11-21T05:54:06;23.30;51.60
14901;DHT22;7542;49.078;9.194;2023-11-21T05:55:10;23.40;51.50
14901;DHT22;7542;49.078;9.194;2023-11-21T05:56:12;23.30;51.50
14901;DHT22;7542;49.078;9.194;2023-11-21T05:57:15;23.30;51.50
14901;DHT22;7542;49.078;9.194;2023-11-21T05:58:17;23.30;51.50
14901;DHT22;7542;49.078;9.194;2023-11-21T05:59:19;23.30;51.50
14901;DHT22;7542;49.078;9.194;2023-11-21T06:00:25;23.30;51.50
14901;DHT22;7542;49.078;9.194;2023-11-21T06:01:28;23.30;51.50
14901;DHT22;7542;49.078;9.194;2023-11-21T06:02:30;23.20;51.40
14901;DHT22;7542;49.078;9.194;2023-11-21T06:03:33;23.30;51.50
14901;DHT22;7542;49.078;9.194;2023-11-21T06:04:35;23.30;51.50
14901;DHT22;7542;49.078;9.194;2023-11-21T06:05:37;23.30;51.50
14901;DHT22;7542;49.078;9.194;2023-11-21T06:06:40;23.30;51.50
14901;DHT22;7542;49.078;9.194;2023-11-21T06:07:42;23.30;51.50
14901;DHT22;7542;49.078;9.194;2023-11-21T06:08:44;23.30;51.50
14901;DHT22;7542;49.078;9.194;2023-11-21T06:09:46;23.20;51.40
14901;DHT22;7542;49.078;9.194;2023-11-21T06:10:50;23.30;51.50
14901;DHT22;7542;49.078;9.194;2023-11-21T06:11:52;23.40;51.50
14901;DHT22;7542;49.078;9.194;2023-11-21T06:12:54;23.30;51.50
14901;DHT22;7542;49.078;9.194;2023-11-21T06:13:56;23.30;51.40
14901;DHT22;7542;49.078;9.194;2023-11-21T06:14:58;23.30;51.50
14901;DHT22;7542;49.078;9.194;2023-11-21T06:16:00;23.30;51.50
14901;DHT22;7542;49.078;9.194;2023-11-21T06:17:02;23.20;51.40
14901;DHT22;7542;49.078;9.194;2023-11-21T06:18:05;23.20;51.40
14901;DHT22;7542;49.078;9.194;2023-11-21T06:19:15;23.30;51.50
14901;DHT22;7542;49.078;9.194;2023-11-21T06:20:18;23.20;51.30
14901;DHT22;7542;49.078;9.194;2023-11-21T06:21:20;23.30;51.50
14901;DHT22;7542;49.078;9.194;2023-11-21T06:22:22;23.20;51.40
14901;DHT22;7542;49.078;9.194;2023-11-21T06:23:24;23.30;51.50
14901;DHT22;7542;49.078;9.194;2023-11-21T06:24:26;23.20;51.50
14901;DHT22;7542;49.078;9.194;2023-11-21T06:25:28;23.20;51.40
14901;DHT22;7542;49.078;9.194;2023-11-21T06:26:30;23.30;51.60
14901;DHT22;7542;49.078;9.194;2023-11-21T06:27:43;23.20;51.50
14901;DHT22;7542;49.078;9.194;2023-11-21T06:28:47;23.40;51.60
14901;DHT22;7542;49.078;9.194;2023-11-21T06:29:49;23.20;51.50
14901;DHT22;7542;49.078;9.194;2023-11-21T06:30:51;23.20;51.50
14901;DHT22;7542;49.078;9.194;2023-11-21T06:31:54;23.20;51.50
14901;DHT22;7542;49.078;9.194;2023-11-21T06:32:56;23.20;51.50
14901;DHT22;7542;49.078;9.194;2023-11-21T06:33:58;23.20;51.50
14901;DHT22;7542;49.078;9.194;2023-11-21T06:35:02;23.20;51.50
14901;DHT22;7542;49.078;9.194;2023-11-21T06:36:06;23.20;51.50
14901;DHT22;7542;49.078;9.194;2023-11-21T06:37:08;23.20;51.50
14901;DHT22;7542;49.078;9.194;2023-11-21T06:38:10;23.20;51.50
14901;DHT22;7542;49.078;9.194;2023-11-21T06:39:12;23.20;51.50
14901;DHT22;7542;49.078;9.194;2023-11-21T06:40:17;23.20;51.50
14901;DHT22;7542;49.078;9.194;2023-11-21T06:41:21;23.20;51.50
14901;DHT22;7542;49.078;9.194;2023-11-21T06:42:22;23.20;51.50